createdAt,value
2022-12-20T00:05:28.293Z,101073.73
2022-12-20T00:20:32.742Z,101076.52
2022-12-20T00:35:36.651Z,101066.60
2022-12-20T00:50:40.767Z,101055.38
2022-12-20T01:05:57.792Z,101051.54
2022-12-20T01:21:08.468Z,101025.99
2022-12-20T01:36:33.996Z,101021.68
2022-12-20T01:51:45.498Z,101013.85
2022-12-20T02:06:49.286Z,100996.93
2022-12-20T02:22:25.330Z,100981.20
2022-12-20T02:37:30.169Z,100971.63
2022-12-20T02:52:35.453Z,100968.17
2022-12-20T03:07:39.305Z,100966.44
2022-12-20T03:22:43.109Z,100974.10
2022-12-20T03:37:47.303Z,100975.03
2022-12-20T03:53:05.634Z,100974.45
2022-12-20T04:08:09.359Z,100971.90
2022-12-20T04:23:13.399Z,100967.02
2022-12-20T04:38:18.587Z,100966.96
2022-12-20T04:53:42.529Z,100963.02
2022-12-20T05:24:24.519Z,100961.44
2022-12-20T05:39:28.426Z,100944.52
2022-12-20T05:54:33.432Z,100951.36
2022-12-20T06:09:37.529Z,100958.80
2022-12-20T06:24:47.647Z,100975.77
2022-12-20T06:39:52.310Z,100981.74
2022-12-20T06:54:56.689Z,100968.59
2022-12-20T07:10:01.208Z,100973.10
2022-12-20T07:25:19.598Z,100958.36
2022-12-20T07:40:24.558Z,100965.98
2022-12-20T07:55:31.777Z,100971.40
2022-12-20T08:10:51.347Z,100972.36
2022-12-20T08:25:55.617Z,100970.01
2022-12-20T08:41:16.486Z,100970.87
2022-12-20T09:11:52.576Z,100953.70
2022-12-20T09:26:56.780Z,100958.05
2022-12-20T09:42:01.096Z,100959.58
2022-12-20T09:57:29.948Z,100959.69
2022-12-20T10:12:53.773Z,100927.31
2022-12-20T10:28:03.299Z,100938.75
2022-12-20T10:43:23.638Z,100929.68
2022-12-20T10:58:42.965Z,100927.61
2022-12-20T11:13:49.684Z,100909.48
2022-12-20T11:29:15.640Z,100903.33
2022-12-20T11:44:40.143Z,100882.19
2022-12-20T11:59:59.548Z,100845.65
2022-12-20T12:15:40.179Z,100844.75
2022-12-20T12:31:07.503Z,100837.64
2022-12-20T12:46:36.704Z,100837.20
2022-12-20T13:01:44.767Z,100807.02
2022-12-20T13:17:12.728Z,100795.19
2022-12-20T13:32:58.732Z,100793.90
2022-12-20T13:48:11.374Z,100782.70
2022-12-20T14:19:15.747Z,100766.66
2022-12-20T14:49:58.107Z,100751.52
2022-12-20T15:05:41.553Z,100720.70
2022-12-20T15:36:28.507Z,100719.69
2022-12-20T15:51:36.822Z,100721.80
2022-12-20T16:06:41.520Z,100702.77
2022-12-20T16:37:11.965Z,100701.88
2022-12-20T16:52:20.105Z,100677.40
2022-12-20T17:07:46.997Z,100676.56
2022-12-20T17:22:56.619Z,100666.67
2022-12-20T17:38:22.337Z,100654.90
2022-12-20T17:53:28.959Z,100655.94
2022-12-20T18:08:33.484Z,100637.45
2022-12-20T18:23:39.285Z,100617.03
2022-12-20T18:38:46.913Z,100609.38
2022-12-20T18:53:54.704Z,100607.11
2022-12-20T19:24:33.186Z,100583.54
2022-12-20T19:39:37.925Z,100575.34
2022-12-20T19:54:44.671Z,100580.19
2022-12-20T20:10:04.480Z,100589.39
2022-12-20T20:25:09.157Z,100587.23
2022-12-20T20:40:15.661Z,100581.22
2022-12-20T20:55:20.143Z,100575.52
2022-12-20T21:10:24.931Z,100562.17
2022-12-20T21:25:29.664Z,100568.21
2022-12-20T21:40:33.855Z,100558.80
2022-12-20T21:55:38.667Z,100530.56
2022-12-20T22:11:04.285Z,100519.95
2022-12-20T22:26:15.705Z,100503.46
2022-12-20T22:41:24.310Z,100499.10
2022-12-20T22:56:28.934Z,100498.17
2022-12-20T23:27:23.626Z,100468.45
2022-12-20T23:42:41.616Z,100455.59
2022-12-20T23:57:45.883Z,100437.42
